sensor_id;sensor_type;location;lat;lon;timestamp;pressure;altitude;pressure_sealevel;temperature;humidity
28628;BME280;15815;46.760;19.604;2023-05-20T00:01:12;100691.13;;;16.26;96.92
28628;BME280;15815;46.760;19.604;2023-05-20T00:03:38;100701.91;;;16.34;96.88
28628;BME280;15815;46.760;19.604;2023-05-20T00:06:03;100688.88;;;16.17;96.84
28628;BME280;15815;46.760;19.604;2023-05-20T00:08:29;100706.63;;;16.21;97.09
28628;BME280;15815;46.760;19.604;2023-05-20T00:10:54;100691.03;;;16.10;97.08
28628;BME280;15815;46.760;19.604;2023-05-20T00:13:20;100693.13;;;16.05;96.62
28628;BME280;15815;46.760;19.604;2023-05-20T00:15:48;100690.06;;;15.96;96.95
28628;BME280;15815;46.760;19.604;2023-05-20T00:18:14;100672.31;;;15.92;97.50
28628;BME280;15815;46.760;19.604;2023-05-20T00:20:40;100688.78;;;16.01;98.29
28628;BME280;15815;46.760;19.604;2023-05-20T00:23:05;100682.81;;;15.95;97.73
28628;BME280;15815;46.760;19.604;2023-05-20T00:25:31;100675.22;;;15.89;97.93
28628;BME280;15815;46.760;19.604;2023-05-20T00:27:56;100673.72;;;15.81;98.54
28628;BME280;15815;46.760;19.604;2023-05-20T00:30:22;100678.81;;;15.69;98.47
28628;BME280;15815;46.760;19.604;2023-05-20T00:32:47;100677.69;;;15.63;98.13
28628;BME280;15815;46.760;19.604;2023-05-20T00:35:13;100681.94;;;15.75;98.56
28628;BME280;15815;46.760;19.604;2023-05-20T00:37:38;100690.00;;;15.76;99.73
28628;BME280;15815;46.760;19.604;2023-05-20T00:40:04;100668.19;;;15.73;99.76
28628;BME280;15815;46.760;19.604;2023-05-20T00:42:30;100666.00;;;15.61;99.02
28628;BME280;15815;46.760;19.604;2023-05-20T00:44:56;100662.75;;;15.59;98.46
28628;BME280;15815;46.760;19.604;2023-05-20T00:47:26;100654.38;;;15.52;99.10
28628;BME280;15815;46.760;19.604;2023-05-20T00:49:52;100660.69;;;15.63;98.77
28628;BME280;15815;46.760;19.604;2023-05-20T00:52:18;100663.53;;;15.63;99.21
28628;BME280;15815;46.760;19.604;2023-05-20T00:54:44;100643.91;;;15.49;98.28
28628;BME280;15815;46.760;19.604;2023-05-20T00:57:10;100642.84;;;15.39;99.20
28628;BME280;15815;46.760;19.604;2023-05-20T00:59:37;100653.69;;;15.44;99.17
28628;BME280;15815;46.760;19.604;2023-05-20T01:02:03;100656.69;;;15.34;100.00
28628;BME280;15815;46.760;19.604;2023-05-20T01:04:30;100660.38;;;15.31;100.00
28628;BME280;15815;46.760;19.604;2023-05-20T01:06:56;100653.47;;;15.32;100.00
28628;BME280;15815;46.760;19.604;2023-05-20T01:09:26;100645.59;;;15.20;100.00
28628;BME280;15815;46.760;19.604;2023-05-20T01:12:00;100667.19;;;15.33;100.00
28628;BME280;15815;46.760;19.604;2023-05-20T01:14:29;100657.81;;;15.40;100.00
28628;BME280;15815;46.760;19.604;2023-05-20T01:17:00;100651.94;;;15.27;99.87
28628;BME280;15815;46.760;19.604;2023-05-20T01:19:34;100654.81;;;15.24;99.13
28628;BME280;15815;46.760;19.604;2023-05-20T01:22:05;100650.03;;;15.21;99.96
28628;BME280;15815;46.760;19.604;2023-05-20T01:24:31;100665.34;;;15.23;100.00
28628;BME280;15815;46.760;19.604;2023-05-20T01:26:57;100660.06;;;15.25;100.00
28628;BME280;15815;46.760;19.604;2023-05-20T01:29:24;100655.69;;;15.21;99.80
28628;BME280;15815;46.760;19.604;2023-05-20T01:31:50;100654.19;;;15.12;99.69
28628;BME280;15815;46.760;19.604;2023-05-20T01:34:17;100656.47;;;14.94;100.00
28628;BME280;15815;46.760;19.604;2023-05-20T01:36:44;100666.84;;;15.04;100.00
28628;BME280;15815;46.760;19.604;2023-05-20T01:39:12;100654.44;;;14.95;100.00
28628;BME280;15815;46.760;19.604;2023-05-20T01:41:39;100664.06;;;15.01;100.00
28628;BME280;15815;46.760;19.604;2023-05-20T01:44:06;100665.72;;;14.98;100.00
28628;BME280;15815;46.760;19.604;2023-05-20T01:46:32;100667.00;;;14.94;100.00
28628;BME280;15815;46.760;19.604;2023-05-20T01:48:58;100677.19;;;14.88;100.00
28628;BME280;15815;46.760;19.604;2023-05-20T01:51:23;100673.53;;;14.91;100.00
28628;BME280;15815;46.760;19.604;2023-05-20T01:53:49;100660.34;;;14.80;100.00
28628;BME280;15815;46.760;19.604;2023-05-20T01:56:14;100679.66;;;14.86;100.00
28628;BME280;15815;46.760;19.604;2023-05-20T01:58:40;100685.06;;;14.73;100.00
28628;BME280;15815;46.760;19.604;2023-05-20T02:01:06;100685.00;;;14.80;100.00
28628;BME280;15815;46.760;19.604;2023-05-20T02:03:31;100688.28;;;14.75;100.00
28628;BME280;15815;46.760;19.604;2023-05-20T02:05:57;100686.34;;;14.68;100.00
28628;BME280;15815;46.760;19.604;2023-05-20T02:08:22;100695.91;;;14.78;100.00
28628;BME280;15815;46.760;19.604;2023-05-20T02:10:48;100681.38;;;14.76;100.00
28628;BME280;15815;46.760;19.604;2023-05-20T02:13:13;100680.63;;;14.72;100.00
28628;BME280;15815;46.760;19.604;2023-05-20T02:15:42;100685.44;;;14.75;100.00
28628;BME280;15815;46.760;19.604;2023-05-20T02:18:07;100699.59;;;14.75;100.00
28628;BME280;15815;46.760;19.604;2023-05-20T02:20:39;100691.16;;;14.71;100.00
28628;BME280;15815;46.760;19.604;2023-05-20T02:23:05;100698.47;;;14.69;100.00
28628;BME280;15815;46.760;19.604;2023-05-20T02:25:31;100706.56;;;14.67;100.00
28628;BME280;15815;46.760;19.604;2023-05-20T02:27:56;100711.38;;;14.70;100.00
28628;BME280;15815;46.760;19.604;2023-05-20T02:30:22;100714.59;;;14.72;100.00
28628;BME280;15815;46.760;19.604;2023-05-20T02:32:48;100701.38;;;14.62;100.00
28628;BME280;15815;46.760;19.604;2023-05-20T02:35:13;100709.13;;;14.58;100.00
28628;BME280;15815;46.760;19.604;2023-05-20T02:37:39;100699.09;;;14.53;100.00
28628;BME280;15815;46.760;19.604;2023-05-20T02:40:08;100695.84;;;14.51;100.00
28628;BME280;15815;46.760;19.604;2023-05-20T02:42:33;100692.78;;;14.35;100.00
28628;BME280;15815;46.760;19.604;2023-05-20T02:44:59;100699.66;;;14.34;100.00
28628;BME280;15815;46.760;19.604;2023-05-20T02:47:27;100699.66;;;14.34;100.00
28628;BME280;15815;46.760;19.604;2023-05-20T02:49:53;100679.59;;;14.25;100.00
28628;BME280;15815;46.760;19.604;2023-05-20T02:52:18;100687.56;;;14.33;100.00
28628;BME280;15815;46.760;19.604;2023-05-20T02:54:45;100682.00;;;14.26;100.00
28628;BME280;15815;46.760;19.604;2023-05-20T02:57:11;100690.00;;;14.31;100.00
28628;BME280;15815;46.760;19.604;2023-05-20T02:59:36;100702.06;;;14.35;100.00
28628;BME280;15815;46.760;19.604;2023-05-20T03:02:02;100684.41;;;14.24;100.00
28628;BME280;15815;46.760;19.604;2023-05-20T03:04:27;100682.09;;;14.15;100.00
28628;BME280;15815;46.760;19.604;2023-05-20T03:06:53;100713.44;;;14.32;100.00
28628;BME280;15815;46.760;19.604;2023-05-20T03:09:18;100718.28;;;14.31;100.00
28628;BME280;15815;46.760;19.604;2023-05-20T03:11:44;100711.81;;;14.31;100.00
28628;BME280;15815;46.760;19.604;2023-05-20T03:14:10;100712.69;;;14.24;100.00
28628;BME280;15815;46.760;19.604;2023-05-20T03:16:35;100716.72;;;14.27;100.00
28628;BME280;15815;46.760;19.604;2023-05-20T03:19:01;100695.81;;;14.17;100.00
28628;BME280;15815;46.760;19.604;2023-05-20T03:21:26;100701.38;;;14.24;100.00
28628;BME280;15815;46.760;19.604;2023-05-20T03:23:52;100708.63;;;14.29;100.00
28628;BME280;15815;46.760;19.604;2023-05-20T03:26:18;100709.03;;;14.27;100.00
28628;BME280;15815;46.760;19.604;2023-05-20T03:28:43;100706.69;;;14.18;100.00
28628;BME280;15815;46.760;19.604;2023-05-20T03:31:09;100708.66;;;14.25;100.00
28628;BME280;15815;46.760;19.604;2023-05-20T03:33:34;100693.25;;;14.30;100.00
28628;BME280;15815;46.760;19.604;2023-05-20T03:36:00;100705.22;;;14.44;100.00
28628;BME280;15815;46.760;19.604;2023-05-20T03:38:26;100704.75;;;14.49;100.00
28628;BME280;15815;46.760;19.604;2023-05-20T03:40:51;100700.31;;;14.48;100.00
28628;BME280;15815;46.760;19.604;2023-05-20T03:43:17;100713.97;;;14.57;100.00
28628;BME280;15815;46.760;19.604;2023-05-20T03:45:42;100712.22;;;14.67;100.00
28628;BME280;15815;46.760;19.604;2023-05-20T03:48:11;100726.66;;;14.76;100.00
28628;BME280;15815;46.760;19.604;2023-05-20T03:50:36;100716.94;;;14.77;100.00
28628;BME280;15815;46.760;19.604;2023-05-20T03:53:02;100721.69;;;14.87;100.00
28628;BME280;15815;46.760;19.604;2023-05-20T03:55:27;100720.94;;;14.83;100.00
28628;BME280;15815;46.760;19.604;2023-05-20T03:57:54;100730.44;;;14.96;100.00
28628;BME280;15815;46.760;19.604;2023-05-20T04:00:20;100721.97;;;14.96;100.00
28628;BME280;15815;46.760;19.604;2023-05-20T04:02:45;100731.13;;;15.07;100.00
28628;BME280;15815;46.760;19.604;2023-05-20T04:05:11;100735.13;;;15.10;100.00
28628;BME280;15815;46.760;19.604;2023-05-20T04:07:36;100720.00;;;15.20;100.00
28628;BME280;15815;46.760;19.604;2023-05-20T04:10:03;100702.34;;;15.12;100.00
28628;BME280;15815;46.760;19.604;2023-05-20T04:12:28;100708.94;;;15.29;100.00
28628;BME280;15815;46.760;19.604;2023-05-20T04:14:54;100715.63;;;15.42;100.00
28628;BME280;15815;46.760;19.604;2023-05-20T04:17:19;100714.16;;;15.58;100.00
28628;BME280;15815;46.760;19.604;2023-05-20T04:19:45;100712.81;;;15.69;100.00
28628;BME280;15815;46.760;19.604;2023-05-20T04:22:10;100720.63;;;15.85;100.00
28628;BME280;15815;46.760;19.604;2023-05-20T04:24:37;100721.91;;;16.04;100.00
28628;BME280;15815;46.760;19.604;2023-05-20T04:27:02;100718.22;;;16.50;100.00
28628;BME280;15815;46.760;19.604;2023-05-20T04:29:28;100717.19;;;16.60;100.00
28628;BME280;15815;46.760;19.604;2023-05-20T04:31:54;100706.41;;;16.75;100.00
28628;BME280;15815;46.760;19.604;2023-05-20T04:34:19;100733.31;;;17.23;100.00
28628;BME280;15815;46.760;19.604;2023-05-20T04:36:45;100722.28;;;17.45;100.00
28628;BME280;15815;46.760;19.604;2023-05-20T04:39:10;100727.75;;;17.72;100.00
28628;BME280;15815;46.760;19.604;2023-05-20T04:41:36;100711.94;;;17.87;100.00
28628;BME280;15815;46.760;19.604;2023-05-20T04:44:01;100720.16;;;18.14;99.67
28628;BME280;15815;46.760;19.604;2023-05-20T04:46:27;100743.78;;;18.27;98.50
28628;BME280;15815;46.760;19.604;2023-05-20T04:48:52;100724.91;;;18.33;99.21
28628;BME280;15815;46.760;19.604;2023-05-20T04:51:19;100727.53;;;18.86;96.90
28628;BME280;15815;46.760;19.604;2023-05-20T04:53:44;100733.78;;;19.22;94.36
28628;BME280;15815;46.760;19.604;2023-05-20T04:56:11;100713.16;;;19.56;94.83
28628;BME280;15815;46.760;19.604;2023-05-20T04:58:36;100713.72;;;19.64;92.50
28628;BME280;15815;46.760;19.604;2023-05-20T05:01:02;100710.25;;;19.94;91.86
28628;BME280;15815;46.760;19.604;2023-05-20T05:03:27;100714.84;;;20.26;90.92
28628;BME280;15815;46.760;19.604;2023-05-20T05:05:57;100722.06;;;20.53;88.88
28628;BME280;15815;46.760;19.604;2023-05-20T05:08:28;100729.47;;;20.85;86.84
28628;BME280;15815;46.760;19.604;2023-05-20T05:10:54;100702.59;;;21.04;84.19
28628;BME280;15815;46.760;19.604;2023-05-20T05:13:19;100710.84;;;21.24;84.60
28628;BME280;15815;46.760;19.604;2023-05-20T05:15:45;100721.59;;;21.51;83.42
28628;BME280;15815;46.760;19.604;2023-05-20T05:18:10;100714.44;;;21.96;82.46
28628;BME280;15815;46.760;19.604;2023-05-20T05:20:36;100723.88;;;22.24;78.73
28628;BME280;15815;46.760;19.604;2023-05-20T05:23:01;100713.22;;;22.61;79.39
28628;BME280;15815;46.760;19.604;2023-05-20T05:25:27;100721.97;;;22.66;77.26
28628;BME280;15815;46.760;19.604;2023-05-20T05:27:52;100712.56;;;22.66;74.28
28628;BME280;15815;46.760;19.604;2023-05-20T05:30:19;100711.31;;;22.85;74.19
28628;BME280;15815;46.760;19.604;2023-05-20T05:32:45;100708.28;;;22.89;74.19
28628;BME280;15815;46.760;19.604;2023-05-20T05:35:10;100727.66;;;23.12;72.52
28628;BME280;15815;46.760;19.604;2023-05-20T05:37:36;100731.25;;;23.40;71.81
28628;BME280;15815;46.760;19.604;2023-05-20T05:40:02;100723.97;;;23.30;71.01
28628;BME280;15815;46.760;19.604;2023-05-20T05:42:27;100720.38;;;23.86;70.61
28628;BME280;15815;46.760;19.604;2023-05-20T05:44:53;100742.72;;;24.39;67.44
28628;BME280;15815;46.760;19.604;2023-05-20T05:47:20;100735.59;;;24.49;66.85
28628;BME280;15815;46.760;19.604;2023-05-20T05:49:45;100724.75;;;24.68;66.06
28628;BME280;15815;46.760;19.604;2023-05-20T05:52:11;100732.31;;;24.95;66.63
28628;BME280;15815;46.760;19.604;2023-05-20T05:54:37;100734.03;;;25.02;64.60
28628;BME280;15815;46.760;19.604;2023-05-20T05:57:02;100735.63;;;25.03;62.99
28628;BME280;15815;46.760;19.604;2023-05-20T05:59:28;100739.78;;;25.02;63.21
28628;BME280;15815;46.760;19.604;2023-05-20T06:01:53;100731.03;;;25.40;62.62
28628;BME280;15815;46.760;19.604;2023-05-20T06:04:19;100725.66;;;25.63;60.17
28628;BME280;15815;46.760;19.604;2023-05-20T06:06:45;100725.00;;;25.88;59.35
28628;BME280;15815;46.760;19.604;2023-05-20T06:09:11;100728.66;;;26.24;60.11
28628;BME280;15815;46.760;19.604;2023-05-20T06:11:37;100730.53;;;26.47;59.24
28628;BME280;15815;46.760;19.604;2023-05-20T06:14:03;100739.19;;;26.47;58.54
28628;BME280;15815;46.760;19.604;2023-05-20T06:16:28;100743.81;;;26.59;57.47
28628;BME280;15815;46.760;19.604;2023-05-20T06:18:54;100737.09;;;26.68;57.42
28628;BME280;15815;46.760;19.604;2023-05-20T06:21:19;100721.19;;;26.78;56.07
28628;BME280;15815;46.760;19.604;2023-05-20T06:23:45;100738.81;;;27.06;55.34
28628;BME280;15815;46.760;19.604;2023-05-20T06:26:10;100733.78;;;27.01;53.70
28628;BME280;15815;46.760;19.604;2023-05-20T06:28:37;100729.22;;;26.68;52.93
28628;BME280;15815;46.760;19.604;2023-05-20T06:31:03;100749.41;;;27.15;54.48
28628;BME280;15815;46.760;19.604;2023-05-20T06:33:30;100746.78;;;27.43;52.96
28628;BME280;15815;46.760;19.604;2023-05-20T06:35:57;100726.06;;;27.13;54.07
28628;BME280;15815;46.760;19.604;2023-05-20T06:38:23;100744.94;;;27.71;52.67
28628;BME280;15815;46.760;19.604;2023-05-20T06:40:49;100751.06;;;27.84;52.10
28628;BME280;15815;46.760;19.604;2023-05-20T06:43:15;100739.41;;;28.16;51.17
28628;BME280;15815;46.760;19.604;2023-05-20T06:45:42;100752.22;;;27.98;49.93
28628;BME280;15815;46.760;19.604;2023-05-20T06:48:07;100744.09;;;28.50;51.14
28628;BME280;15815;46.760;19.604;2023-05-20T06:50:33;100753.94;;;28.81;49.63
28628;BME280;15815;46.760;19.604;2023-05-20T06:52:59;100751.34;;;28.94;48.48
28628;BME280;15815;46.760;19.604;2023-05-20T06:55:24;100751.72;;;28.53;46.81
28628;BME280;15815;46.760;19.604;2023-05-20T06:57:50;100747.78;;;28.56;46.78
28628;BME280;15815;46.760;19.604;2023-05-20T07:00:16;100760.81;;;28.89;46.72
28628;BME280;15815;46.760;19.604;2023-05-20T07:02:41;100752.66;;;28.99;46.32
28628;BME280;15815;46.760;19.604;2023-05-20T07:05:07;100766.66;;;28.41;47.28
28628;BME280;15815;46.760;19.604;2023-05-20T07:07:33;100766.50;;;28.67;46.50
28628;BME280;15815;46.760;19.604;2023-05-20T07:09:59;100749.66;;;28.71;45.63
28628;BME280;15815;46.760;19.604;2023-05-20T07:12:25;100742.97;;;29.07;46.61
28628;BME280;15815;46.760;19.604;2023-05-20T07:14:50;100751.91;;;29.15;47.15
28628;BME280;15815;46.760;19.604;2023-05-20T07:17:16;100750.81;;;29.01;45.70
28628;BME280;15815;46.760;19.604;2023-05-20T07:19:41;100760.63;;;29.43;45.87
28628;BME280;15815;46.760;19.604;2023-05-20T07:22:10;100760.88;;;29.39;45.00
28628;BME280;15815;46.760;19.604;2023-05-20T07:24:41;100750.09;;;29.73;44.50
28628;BME280;15815;46.760;19.604;2023-05-20T07:27:07;100752.69;;;30.10;44.47
28628;BME280;15815;46.760;19.604;2023-05-20T07:29:34;100753.47;;;30.11;45.59
28628;BME280;15815;46.760;19.604;2023-05-20T07:32:00;100752.84;;;30.40;45.60
28628;BME280;15815;46.760;19.604;2023-05-20T07:34:26;100746.81;;;30.44;44.15
28628;BME280;15815;46.760;19.604;2023-05-20T07:36:51;100747.69;;;31.27;46.11
28628;BME280;15815;46.760;19.604;2023-05-20T07:39:17;100744.34;;;31.12;43.62
28628;BME280;15815;46.760;19.604;2023-05-20T07:41:43;100740.63;;;31.17;42.74
28628;BME280;15815;46.760;19.604;2023-05-20T07:44:08;100748.97;;;31.31;42.26
28628;BME280;15815;46.760;19.604;2023-05-20T07:46:34;100759.59;;;31.23;40.40
28628;BME280;15815;46.760;19.604;2023-05-20T07:48:59;100753.25;;;31.25;40.87
28628;BME280;15815;46.760;19.604;2023-05-20T07:51:25;100761.84;;;31.00;40.65
28628;BME280;15815;46.760;19.604;2023-05-20T07:53:51;100761.53;;;31.45;40.83
28628;BME280;15815;46.760;19.604;2023-05-20T07:56:17;100745.03;;;31.29;41.17
28628;BME280;15815;46.760;19.604;2023-05-20T07:58:42;100749.00;;;31.61;41.28
28628;BME280;15815;46.760;19.604;2023-05-20T08:01:08;100742.41;;;30.84;41.50
28628;BME280;15815;46.760;19.604;2023-05-20T08:03:34;100735.44;;;30.52;41.07
28628;BME280;15815;46.760;19.604;2023-05-20T08:06:02;100743.22;;;30.79;40.67
28628;BME280;15815;46.760;19.604;2023-05-20T08:08:27;100734.28;;;31.18;40.36
28628;BME280;15815;46.760;19.604;2023-05-20T08:10:53;100722.28;;;31.33;41.12
28628;BME280;15815;46.760;19.604;2023-05-20T08:13:18;100731.41;;;31.48;41.17
28628;BME280;15815;46.760;19.604;2023-05-20T08:15:47;100734.75;;;32.12;40.90
28628;BME280;15815;46.760;19.604;2023-05-20T08:18:13;100713.00;;;31.94;39.75
28628;BME280;15815;46.760;19.604;2023-05-20T08:20:39;100728.88;;;31.93;39.02
28628;BME280;15815;46.760;19.604;2023-05-20T08:23:04;100716.22;;;31.91;38.67
28628;BME280;15815;46.760;19.604;2023-05-20T08:25:30;100725.69;;;31.67;38.55
28628;BME280;15815;46.760;19.604;2023-05-20T08:27:55;100735.00;;;31.90;39.09
28628;BME280;15815;46.760;19.604;2023-05-20T08:30:23;100727.63;;;31.89;38.79
28628;BME280;15815;46.760;19.604;2023-05-20T08:32:49;100704.06;;;31.92;39.88
28628;BME280;15815;46.760;19.604;2023-05-20T08:35:14;100728.47;;;32.08;37.67
28628;BME280;15815;46.760;19.604;2023-05-20T08:37:40;100725.41;;;32.19;38.85
28628;BME280;15815;46.760;19.604;2023-05-20T08:40:06;100722.91;;;32.53;39.27
28628;BME280;15815;46.760;19.604;2023-05-20T08:42:33;100721.50;;;32.60;38.97
28628;BME280;15815;46.760;19.604;2023-05-20T08:44:58;100719.44;;;32.74;38.09
28628;BME280;15815;46.760;19.604;2023-05-20T08:47:25;100723.78;;;32.67;37.70
28628;BME280;15815;46.760;19.604;2023-05-20T08:49:50;100719.53;;;32.68;38.58
28628;BME280;15815;46.760;19.604;2023-05-20T08:52:20;100727.75;;;32.88;37.23
28628;BME280;15815;46.760;19.604;2023-05-20T08:54:48;100729.19;;;33.33;37.75
28628;BME280;15815;46.760;19.604;2023-05-20T08:57:14;100720.06;;;33.23;37.01
28628;BME280;15815;46.760;19.604;2023-05-20T08:59:44;100718.38;;;33.60;36.28
28628;BME280;15815;46.760;19.604;2023-05-20T09:02:10;100723.19;;;33.44;36.01
28628;BME280;15815;46.760;19.604;2023-05-20T09:04:36;100718.59;;;33.48;37.13
28628;BME280;15815;46.760;19.604;2023-05-20T09:07:02;100714.94;;;33.74;36.64
28628;BME280;15815;46.760;19.604;2023-05-20T09:09:33;100719.31;;;33.81;35.11
28628;BME280;15815;46.760;19.604;2023-05-20T09:11:59;100722.38;;;33.89;36.21
28628;BME280;15815;46.760;19.604;2023-05-20T09:14:25;100714.56;;;33.52;36.60
28628;BME280;15815;46.760;19.604;2023-05-20T09:16:50;100712.09;;;34.27;35.32
28628;BME280;15815;46.760;19.604;2023-05-20T09:19:19;100704.13;;;34.54;35.49
28628;BME280;15815;46.760;19.604;2023-05-20T09:21:45;100714.53;;;34.50;34.87
28628;BME280;15815;46.760;19.604;2023-05-20T09:24:11;100704.22;;;34.22;34.93
28628;BME280;15815;46.760;19.604;2023-05-20T09:26:36;100701.44;;;34.03;34.65
28628;BME280;15815;46.760;19.604;2023-05-20T09:29:02;100707.59;;;34.26;34.71
28628;BME280;15815;46.760;19.604;2023-05-20T09:31:31;100695.38;;;34.28;33.41
28628;BME280;15815;46.760;19.604;2023-05-20T09:33:56;100704.13;;;34.28;34.77
28628;BME280;15815;46.760;19.604;2023-05-20T09:36:24;100706.34;;;34.22;34.53
28628;BME280;15815;46.760;19.604;2023-05-20T09:38:53;100699.75;;;34.08;32.63
28628;BME280;15815;46.760;19.604;2023-05-20T09:41:23;100691.53;;;34.33;32.21
28628;BME280;15815;46.760;19.604;2023-05-20T09:43:51;100690.41;;;34.23;31.87
28628;BME280;15815;46.760;19.604;2023-05-20T09:46:18;100679.22;;;33.87;33.04
28628;BME280;15815;46.760;19.604;2023-05-20T09:48:44;100673.81;;;33.78;34.39
28628;BME280;15815;46.760;19.604;2023-05-20T09:51:10;100680.81;;;34.01;33.56
28628;BME280;15815;46.760;19.604;2023-05-20T09:53:36;100680.22;;;34.03;34.21
28628;BME280;15815;46.760;19.604;2023-05-20T09:56:02;100671.13;;;34.33;35.01
28628;BME280;15815;46.760;19.604;2023-05-20T09:58:28;100673.59;;;34.42;35.42
28628;BME280;15815;46.760;19.604;2023-05-20T10:00:54;100666.19;;;34.15;33.45
28628;BME280;15815;46.760;19.604;2023-05-20T10:03:23;100657.00;;;34.37;32.26
28628;BME280;15815;46.760;19.604;2023-05-20T10:18:08;100643.03;;;33.37;33.85
28628;BME280;15815;46.760;19.604;2023-05-20T10:20:48;100646.16;;;33.39;38.17
28628;BME280;15815;46.760;19.604;2023-05-20T10:25:51;100641.28;;;32.65;33.12
28628;BME280;15815;46.760;19.604;2023-05-20T10:28:26;100638.69;;;32.61;32.08
28628;BME280;15815;46.760;19.604;2023-05-20T10:30:52;100635.91;;;32.69;31.66
28628;BME280;15815;46.760;19.604;2023-05-20T10:33:18;100627.50;;;32.27;30.69
28628;BME280;15815;46.760;19.604;2023-05-20T10:35:49;100599.91;;;32.15;32.49
28628;BME280;15815;46.760;19.604;2023-05-20T10:38:15;100617.59;;;32.55;34.26
28628;BME280;15815;46.760;19.604;2023-05-20T10:40:40;100607.47;;;32.43;34.28
28628;BME280;15815;46.760;19.604;2023-05-20T10:43:11;100620.50;;;32.17;34.24
28628;BME280;15815;46.760;19.604;2023-05-20T10:48:22;100620.28;;;31.42;33.70
28628;BME280;15815;46.760;19.604;2023-05-20T10:50:48;100613.19;;;31.08;33.09
28628;BME280;15815;46.760;19.604;2023-05-20T10:53:14;100607.53;;;30.91;33.75
28628;BME280;15815;46.760;19.604;2023-05-20T10:55:45;100609.50;;;30.77;34.89
28628;BME280;15815;46.760;19.604;2023-05-20T10:58:13;100609.50;;;30.30;34.36
28628;BME280;15815;46.760;19.604;2023-05-20T11:00:39;100609.22;;;30.34;35.63
28628;BME280;15815;46.760;19.604;2023-05-20T11:03:05;100599.28;;;30.24;36.36
28628;BME280;15815;46.760;19.604;2023-05-20T11:05:31;100598.66;;;30.42;35.72
28628;BME280;15815;46.760;19.604;2023-05-20T11:08:05;100599.94;;;29.83;36.01
28628;BME280;15815;46.760;19.604;2023-05-20T11:10:32;100593.47;;;29.60;36.57
28628;BME280;15815;46.760;19.604;2023-05-20T11:13:00;100598.75;;;29.39;36.83
28628;BME280;15815;46.760;19.604;2023-05-20T11:15:26;100589.28;;;29.28;37.30
28628;BME280;15815;46.760;19.604;2023-05-20T11:17:56;100580.06;;;29.35;36.34
28628;BME280;15815;46.760;19.604;2023-05-20T11:20:22;100579.53;;;29.36;36.77
28628;BME280;15815;46.760;19.604;2023-05-20T11:22:54;100583.78;;;29.18;35.46
28628;BME280;15815;46.760;19.604;2023-05-20T11:25:20;100582.75;;;28.93;35.48
28628;BME280;15815;46.760;19.604;2023-05-20T11:27:46;100581.91;;;28.71;38.14
28628;BME280;15815;46.760;19.604;2023-05-20T11:30:12;100588.53;;;28.77;37.39
28628;BME280;15815;46.760;19.604;2023-05-20T11:32:38;100591.44;;;28.88;37.97
28628;BME280;15815;46.760;19.604;2023-05-20T11:35:04;100575.63;;;29.00;38.12
28628;BME280;15815;46.760;19.604;2023-05-20T11:37:31;100571.66;;;29.20;38.73
28628;BME280;15815;46.760;19.604;2023-05-20T11:40:06;100560.34;;;29.28;39.43
28628;BME280;15815;46.760;19.604;2023-05-20T11:42:34;100558.22;;;29.34;38.82
28628;BME280;15815;46.760;19.604;2023-05-20T11:45:00;100565.88;;;29.20;37.19
28628;BME280;15815;46.760;19.604;2023-05-20T11:47:28;100558.03;;;29.09;37.84
28628;BME280;15815;46.760;19.604;2023-05-20T11:49:55;100562.75;;;28.96;38.13
28628;BME280;15815;46.760;19.604;2023-05-20T11:52:21;100564.59;;;28.82;36.80
28628;BME280;15815;46.760;19.604;2023-05-20T11:54:52;100562.19;;;28.75;35.84
28628;BME280;15815;46.760;19.604;2023-05-20T11:57:18;100553.28;;;29.01;37.42
28628;BME280;15815;46.760;19.604;2023-05-20T11:59:46;100555.13;;;28.92;36.87
28628;BME280;15815;46.760;19.604;2023-05-20T12:02:11;100560.88;;;28.70;38.23
28628;BME280;15815;46.760;19.604;2023-05-20T12:04:37;100552.72;;;28.74;37.14
28628;BME280;15815;46.760;19.604;2023-05-20T12:07:02;100561.94;;;28.61;37.71
28628;BME280;15815;46.760;19.604;2023-05-20T12:09:28;100545.34;;;28.45;37.53
28628;BME280;15815;46.760;19.604;2023-05-20T12:11:53;100540.63;;;28.42;38.82
28628;BME280;15815;46.760;19.604;2023-05-20T12:14:19;100544.31;;;28.43;38.58
28628;BME280;15815;46.760;19.604;2023-05-20T12:16:44;100533.78;;;28.28;39.18
28628;BME280;15815;46.760;19.604;2023-05-20T12:19:10;100544.31;;;28.26;38.71
28628;BME280;15815;46.760;19.604;2023-05-20T12:21:36;100525.03;;;28.12;39.31
28628;BME280;15815;46.760;19.604;2023-05-20T12:24:01;100542.91;;;28.16;38.73
28628;BME280;15815;46.760;19.604;2023-05-20T12:26:27;100536.34;;;28.10;38.43
28628;BME280;15815;46.760;19.604;2023-05-20T12:28:53;100522.16;;;28.00;40.36
28628;BME280;15815;46.760;19.604;2023-05-20T12:31:19;100517.41;;;28.03;39.52
28628;BME280;15815;46.760;19.604;2023-05-20T12:33:45;100521.09;;;28.09;40.49
28628;BME280;15815;46.760;19.604;2023-05-20T12:36:11;100524.78;;;28.15;39.93
28628;BME280;15815;46.760;19.604;2023-05-20T12:38:37;100520.31;;;28.09;39.29
28628;BME280;15815;46.760;19.604;2023-05-20T12:41:02;100530.81;;;28.06;39.09
28628;BME280;15815;46.760;19.604;2023-05-20T12:43:28;100521.88;;;27.98;40.26
28628;BME280;15815;46.760;19.604;2023-05-20T12:45:53;100513.44;;;27.89;39.67
28628;BME280;15815;46.760;19.604;2023-05-20T12:48:19;100508.69;;;27.75;40.03
28628;BME280;15815;46.760;19.604;2023-05-20T12:50:44;100504.28;;;27.96;39.47